createdAt,value
2023-03-22T06:01:09.356Z,26.08
2023-03-22T06:05:09.314Z,26.07
2023-03-22T06:09:16.858Z,25.95
2023-03-22T06:13:10.274Z,25.83
2023-03-22T06:17:09.219Z,25.78
2023-03-22T06:21:09.376Z,25.73
2023-03-22T06:25:09.574Z,25.68
2023-03-22T06:29:09.767Z,25.58
2023-03-22T06:33:09.945Z,25.49
2023-03-22T06:37:10.143Z,25.51
2023-03-22T06:41:10.307Z,25.48
2023-03-22T06:45:10.454Z,25.42
2023-03-22T06:49:10.735Z,25.57
2023-03-22T06:53:13.213Z,25.85
2023-03-22T06:57:11.110Z,26.32
2023-03-22T07:01:11.347Z,26.41
2023-03-22T07:05:11.552Z,26.75
2023-03-22T07:09:11.674Z,26.91
2023-03-22T07:13:11.918Z,27.00
2023-03-22T07:17:11.931Z,27.04
2023-03-22T07:21:11.940Z,27.28
2023-03-22T07:25:12.009Z,27.54
2023-03-22T07:29:12.043Z,26.97
2023-03-22T07:33:12.112Z,27.06
2023-03-22T07:37:12.279Z,27.01
2023-03-22T07:41:12.257Z,26.89
2023-03-22T07:45:12.396Z,26.97
2023-03-22T07:49:12.303Z,26.82
2023-03-22T07:53:12.440Z,26.77
2023-03-22T07:57:12.386Z,26.71
2023-03-22T08:01:12.508Z,26.68
2023-03-22T08:05:12.475Z,26.62
2023-03-22T08:09:12.507Z,26.64
2023-03-22T08:13:12.517Z,26.55
2023-03-22T08:17:12.483Z,26.44
2023-03-22T08:21:12.533Z,26.26
2023-03-22T08:25:12.548Z,26.33
2023-03-22T08:29:12.654Z,26.48
2023-03-22T08:33:12.592Z,26.46
2023-03-22T08:37:12.631Z,26.54
2023-03-22T08:41:13.110Z,24.88
2023-03-22T08:45:12.913Z,25.81
2023-03-22T08:49:13.009Z,26.57
2023-03-22T08:53:13.056Z,26.71
2023-03-22T08:57:13.110Z,26.76
2023-03-22T09:01:13.246Z,26.86
2023-03-22T09:05:13.134Z,26.75
2023-03-22T09:09:13.165Z,26.74
2023-03-22T09:13:13.222Z,26.58
2023-03-22T09:17:13.256Z,26.40
2023-03-22T09:21:13.311Z,26.10
2023-03-22T09:25:13.581Z,26.03
2023-03-22T09:29:16.338Z,26.31
2023-03-22T09:33:13.333Z,27.48
2023-03-22T09:37:13.282Z,26.76
2023-03-22T09:41:13.255Z,27.82
2023-03-22T09:45:13.229Z,28.39
2023-03-22T09:49:13.176Z,28.80
2023-03-22T09:53:13.116Z,29.18
2023-03-22T09:57:13.130Z,29.35
2023-03-22T10:01:13.243Z,29.73
2023-03-22T10:05:14.662Z,30.02
2023-03-22T10:09:13.086Z,29.64
2023-03-22T10:13:13.051Z,29.60
2023-03-22T10:17:12.925Z,29.72
2023-03-22T10:21:12.947Z,29.46
2023-03-22T10:25:13.000Z,29.23
2023-03-22T10:29:12.913Z,29.00
2023-03-22T10:33:12.973Z,28.88
2023-03-22T10:37:13.260Z,29.06
2023-03-22T10:41:13.336Z,29.04
2023-03-22T10:45:16.327Z,27.04
2023-03-22T10:49:13.429Z,25.67
2023-03-22T10:53:13.442Z,24.61
2023-03-22T10:57:13.330Z,24.60
2023-03-22T11:01:13.495Z,23.86
2023-03-22T11:05:13.247Z,24.24
2023-03-22T11:09:13.255Z,25.55
2023-03-22T11:13:13.276Z,26.57
2023-03-22T11:17:14.897Z,27.47
2023-03-22T11:21:13.147Z,28.08
2023-03-22T11:25:13.356Z,28.23
2023-03-22T11:29:13.075Z,27.96
2023-03-22T11:33:13.094Z,27.49
2023-03-22T11:37:15.676Z,27.72
2023-03-22T11:41:13.925Z,27.52
2023-03-22T11:45:12.896Z,27.18
2023-03-22T11:49:13.163Z,27.02
2023-03-22T11:53:13.327Z,26.84
2023-03-22T11:57:13.476Z,26.59
2023-03-22T12:01:13.847Z,26.45
2023-03-22T12:05:13.924Z,26.28
2023-03-22T12:09:14.364Z,25.93
2023-03-22T12:13:14.439Z,25.96
2023-03-22T12:17:16.376Z,26.01
2023-03-22T12:21:14.538Z,25.70
2023-03-22T12:25:14.903Z,25.74
2023-03-22T12:29:14.906Z,25.87
2023-03-22T12:33:15.002Z,25.96
2023-03-22T12:37:15.010Z,26.08
2023-03-22T12:41:15.114Z,26.37
2023-03-22T12:45:15.255Z,25.35
2023-03-22T12:49:15.286Z,25.20
2023-03-22T12:53:15.337Z,25.40
2023-03-22T12:57:15.407Z,25.29
2023-03-22T13:01:15.517Z,24.81
2023-03-22T13:05:15.553Z,24.73
2023-03-22T13:09:15.976Z,24.18
2023-03-22T13:13:15.752Z,24.15
2023-03-22T13:17:17.005Z,24.83
2023-03-22T13:21:16.518Z,24.51
2023-03-22T13:25:15.975Z,24.34
2023-03-22T13:29:16.129Z,24.11
2023-03-22T13:33:16.269Z,24.60
2023-03-22T13:37:16.107Z,25.28
2023-03-22T13:41:16.164Z,24.95
2023-03-22T13:45:16.316Z,24.55
2023-03-22T13:49:16.406Z,24.73
2023-03-22T13:53:16.541Z,24.66
2023-03-22T13:57:16.721Z,24.46
2023-03-22T14:01:16.853Z,23.85
2023-03-22T14:05:17.067Z,23.51
2023-03-22T14:09:17.104Z,23.27
2023-03-22T14:13:17.281Z,23.74
2023-03-22T14:17:17.402Z,23.54
2023-03-22T14:21:17.478Z,23.63
2023-03-22T14:46:08.215Z,24.73
2023-03-22T14:50:08.171Z,24.74
2023-03-22T14:54:08.201Z,24.60
2023-03-22T14:58:08.217Z,24.80
2023-03-22T15:02:08.534Z,23.62
2023-03-22T15:06:08.481Z,23.49
2023-03-22T15:10:08.529Z,23.44
2023-03-22T15:14:08.559Z,23.26
2023-03-22T15:18:08.613Z,23.27
2023-03-22T15:22:08.680Z,23.44
2023-03-22T15:26:08.705Z,23.38
2023-03-22T15:30:08.775Z,23.42
2023-03-22T15:34:08.818Z,23.48
2023-03-22T15:38:08.847Z,23.49
2023-03-22T15:46:28.105Z,24.29
2023-03-22T15:50:28.078Z,24.57
2023-03-22T15:54:28.010Z,24.43
2023-03-22T15:58:27.978Z,24.30
2023-03-22T16:02:27.962Z,24.26
2023-03-22T16:06:27.923Z,24.41
2023-03-22T16:10:27.892Z,25.47
2023-03-22T16:14:27.853Z,25.89
2023-03-22T16:18:27.822Z,26.02
2023-03-22T16:22:27.811Z,26.04
2023-03-22T16:26:27.754Z,26.13
2023-03-22T16:30:27.709Z,26.14
2023-03-22T16:34:27.656Z,26.10
2023-03-22T16:38:27.642Z,26.11
2023-03-22T16:42:27.585Z,26.08
2023-03-22T16:46:27.580Z,26.11
2023-03-22T16:50:27.504Z,26.08
2023-03-22T16:54:27.490Z,26.04
2023-03-22T16:58:27.545Z,26.11
2023-03-22T17:02:27.668Z,26.08
2023-03-22T17:06:27.750Z,26.08
2023-03-22T17:10:27.811Z,26.09
2023-03-22T17:14:27.893Z,26.05
2023-03-22T17:18:28.089Z,26.09
2023-03-22T17:22:28.046Z,26.08
2023-03-22T17:26:28.138Z,26.05
2023-03-22T17:30:28.197Z,26.02
2023-03-22T17:34:28.451Z,26.03
2023-03-22T17:38:33.784Z,26.06
2023-03-22T17:42:29.521Z,26.03
2023-03-22T17:47:04.021Z,26.07
2023-03-22T17:50:29.304Z,26.06
2023-03-22T17:55:03.332Z,26.06
2023-03-22T17:58:41.272Z,26.09
